sensor_id;sensor_type;location;lat;lon;timestamp;pressure;altitude;pressure_sealevel;temperature
63220;BMP180;49320;52.512;13.448;2023-05-07T00:02:01;101762.00;;;16.50
63220;BMP180;49320;52.512;13.448;2023-05-07T00:04:27;101755.00;;;16.50
63220;BMP180;49320;52.512;13.448;2023-05-07T00:06:55;101749.00;;;16.50
63220;BMP180;49320;52.512;13.448;2023-05-07T00:09:22;101753.00;;;16.50
63220;BMP180;49320;52.512;13.448;2023-05-07T00:11:49;101761.00;;;16.50
63220;BMP180;49320;52.512;13.448;2023-05-07T00:14:15;101755.00;;;16.50
63220;BMP180;49320;52.512;13.448;2023-05-07T00:16:42;101754.00;;;16.50
63220;BMP180;49320;52.512;13.448;2023-05-07T00:19:09;101749.00;;;16.50
63220;BMP180;49320;52.512;13.448;2023-05-07T00:21:36;101756.00;;;16.50
63220;BMP180;49320;52.512;13.448;2023-05-07T00:24:03;101746.00;;;16.50
63220;BMP180;49320;52.512;13.448;2023-05-07T00:26:30;101760.00;;;16.50
63220;BMP180;49320;52.512;13.448;2023-05-07T00:28:57;101753.00;;;16.50
63220;BMP180;49320;52.512;13.448;2023-05-07T00:31:24;101745.00;;;16.50
63220;BMP180;49320;52.512;13.448;2023-05-07T00:33:50;101741.00;;;16.60
63220;BMP180;49320;52.512;13.448;2023-05-07T00:36:17;101739.00;;;16.50
63220;BMP180;49320;52.512;13.448;2023-05-07T00:38:44;101752.00;;;16.60
63220;BMP180;49320;52.512;13.448;2023-05-07T00:41:11;101743.00;;;16.50
63220;BMP180;49320;52.512;13.448;2023-05-07T00:43:38;101755.00;;;16.50
63220;BMP180;49320;52.512;13.448;2023-05-07T00:46:05;101755.00;;;16.50
63220;BMP180;49320;52.512;13.448;2023-05-07T00:48:32;101759.00;;;16.50
63220;BMP180;49320;52.512;13.448;2023-05-07T00:50:59;101745.00;;;16.40
63220;BMP180;49320;52.512;13.448;2023-05-07T00:53:26;101753.00;;;16.50
63220;BMP180;49320;52.512;13.448;2023-05-07T00:55:53;101748.00;;;16.50
63220;BMP180;49320;52.512;13.448;2023-05-07T00:58:21;101750.00;;;16.50
63220;BMP180;49320;52.512;13.448;2023-05-07T01:00:47;101754.00;;;16.40
63220;BMP180;49320;52.512;13.448;2023-05-07T01:03:14;101749.00;;;16.50
63220;BMP180;49320;52.512;13.448;2023-05-07T01:05:44;101757.00;;;16.50
63220;BMP180;49320;52.512;13.448;2023-05-07T01:08:14;101750.00;;;16.40
63220;BMP180;49320;52.512;13.448;2023-05-07T01:10:42;101751.00;;;16.40
63220;BMP180;49320;52.512;13.448;2023-05-07T01:13:11;101756.00;;;16.40
63220;BMP180;49320;52.512;13.448;2023-05-07T01:15:38;101750.00;;;16.40
63220;BMP180;49320;52.512;13.448;2023-05-07T01:18:07;101759.00;;;16.50
63220;BMP180;49320;52.512;13.448;2023-05-07T01:20:34;101756.00;;;16.50
63220;BMP180;49320;52.512;13.448;2023-05-07T01:23:03;101758.00;;;16.50
63220;BMP180;49320;52.512;13.448;2023-05-07T01:25:30;101757.00;;;16.50
63220;BMP180;49320;52.512;13.448;2023-05-07T01:27:57;101764.00;;;16.50
63220;BMP180;49320;52.512;13.448;2023-05-07T01:30:27;101760.00;;;16.50
63220;BMP180;49320;52.512;13.448;2023-05-07T01:33:08;101759.00;;;16.50
63220;BMP180;49320;52.512;13.448;2023-05-07T01:35:41;101753.00;;;16.60
63220;BMP180;49320;52.512;13.448;2023-05-07T01:38:10;101757.00;;;16.60
63220;BMP180;49320;52.512;13.448;2023-05-07T01:40:38;101765.00;;;16.60
63220;BMP180;49320;52.512;13.448;2023-05-07T01:43:06;101767.00;;;16.60
63220;BMP180;49320;52.512;13.448;2023-05-07T01:45:34;101758.00;;;16.60
63220;BMP180;49320;52.512;13.448;2023-05-07T01:48:03;101763.00;;;16.60
63220;BMP180;49320;52.512;13.448;2023-05-07T01:50:33;101761.00;;;16.70
63220;BMP180;49320;52.512;13.448;2023-05-07T01:53:01;101770.00;;;16.70
63220;BMP180;49320;52.512;13.448;2023-05-07T01:55:29;101776.00;;;16.70
63220;BMP180;49320;52.512;13.448;2023-05-07T01:57:56;101767.00;;;16.70
63220;BMP180;49320;52.512;13.448;2023-05-07T02:00:23;101771.00;;;16.70
63220;BMP180;49320;52.512;13.448;2023-05-07T02:02:50;101769.00;;;16.70
63220;BMP180;49320;52.512;13.448;2023-05-07T02:05:17;101768.00;;;16.80
63220;BMP180;49320;52.512;13.448;2023-05-07T02:07:44;101774.00;;;16.70
63220;BMP180;49320;52.512;13.448;2023-05-07T02:10:10;101773.00;;;16.70
63220;BMP180;49320;52.512;13.448;2023-05-07T02:12:37;101769.00;;;16.70
63220;BMP180;49320;52.512;13.448;2023-05-07T02:15:05;101768.00;;;16.70
63220;BMP180;49320;52.512;13.448;2023-05-07T02:17:32;101770.00;;;16.70
63220;BMP180;49320;52.512;13.448;2023-05-07T02:19:59;101781.00;;;16.70
63220;BMP180;49320;52.512;13.448;2023-05-07T02:22:26;101780.00;;;16.70
63220;BMP180;49320;52.512;13.448;2023-05-07T02:24:53;101784.00;;;16.70
63220;BMP180;49320;52.512;13.448;2023-05-07T02:27:20;101780.00;;;16.70
63220;BMP180;49320;52.512;13.448;2023-05-07T02:29:46;101776.00;;;16.70
63220;BMP180;49320;52.512;13.448;2023-05-07T02:32:13;101772.00;;;16.70
63220;BMP180;49320;52.512;13.448;2023-05-07T02:34:40;101778.00;;;16.60
63220;BMP180;49320;52.512;13.448;2023-05-07T02:37:07;101787.00;;;16.70
63220;BMP180;49320;52.512;13.448;2023-05-07T02:39:33;101781.00;;;16.60
63220;BMP180;49320;52.512;13.448;2023-05-07T02:42:01;101783.00;;;16.60
63220;BMP180;49320;52.512;13.448;2023-05-07T02:44:28;101787.00;;;16.60
63220;BMP180;49320;52.512;13.448;2023-05-07T02:46:57;101771.00;;;16.60
63220;BMP180;49320;52.512;13.448;2023-05-07T02:49:24;101776.00;;;16.60
63220;BMP180;49320;52.512;13.448;2023-05-07T02:51:51;101791.00;;;16.60
63220;BMP180;49320;52.512;13.448;2023-05-07T02:54:18;101790.00;;;16.60
63220;BMP180;49320;52.512;13.448;2023-05-07T02:56:44;101789.00;;;16.60
63220;BMP180;49320;52.512;13.448;2023-05-07T02:59:11;101786.00;;;16.60
63220;BMP180;49320;52.512;13.448;2023-05-07T03:01:38;101788.00;;;16.60
63220;BMP180;49320;52.512;13.448;2023-05-07T03:04:05;101800.00;;;16.60
63220;BMP180;49320;52.512;13.448;2023-05-07T03:06:32;101804.00;;;16.60
63220;BMP180;49320;52.512;13.448;2023-05-07T03:08:59;101806.00;;;16.60
63220;BMP180;49320;52.512;13.448;2023-05-07T03:11:26;101797.00;;;16.60
63220;BMP180;49320;52.512;13.448;2023-05-07T03:13:52;101804.00;;;16.60
63220;BMP180;49320;52.512;13.448;2023-05-07T03:16:19;101802.00;;;16.60
63220;BMP180;49320;52.512;13.448;2023-05-07T03:18:46;101794.00;;;16.60
63220;BMP180;49320;52.512;13.448;2023-05-07T03:21:13;101799.00;;;16.60
63220;BMP180;49320;52.512;13.448;2023-05-07T03:23:40;101796.00;;;16.60
63220;BMP180;49320;52.512;13.448;2023-05-07T03:26:07;101809.00;;;16.60
63220;BMP180;49320;52.512;13.448;2023-05-07T03:28:33;101810.00;;;16.60
63220;BMP180;49320;52.512;13.448;2023-05-07T03:31:00;101812.00;;;16.60
63220;BMP180;49320;52.512;13.448;2023-05-07T03:33:27;101810.00;;;16.50
63220;BMP180;49320;52.512;13.448;2023-05-07T03:35:54;101815.00;;;16.50
63220;BMP180;49320;52.512;13.448;2023-05-07T03:38:21;101823.00;;;16.40
63220;BMP180;49320;52.512;13.448;2023-05-07T03:40:47;101809.00;;;16.40
63220;BMP180;49320;52.512;13.448;2023-05-07T03:43:14;101814.00;;;16.40
63220;BMP180;49320;52.512;13.448;2023-05-07T03:45:42;101820.00;;;16.30
63220;BMP180;49320;52.512;13.448;2023-05-07T03:48:08;101809.00;;;16.30
63220;BMP180;49320;52.512;13.448;2023-05-07T03:50:35;101817.00;;;16.30
63220;BMP180;49320;52.512;13.448;2023-05-07T03:53:02;101829.00;;;16.30
63220;BMP180;49320;52.512;13.448;2023-05-07T03:55:29;101837.00;;;16.30
63220;BMP180;49320;52.512;13.448;2023-05-07T03:57:56;101832.00;;;16.30
63220;BMP180;49320;52.512;13.448;2023-05-07T04:00:23;101826.00;;;16.30
63220;BMP180;49320;52.512;13.448;2023-05-07T04:02:50;101831.00;;;16.30
63220;BMP180;49320;52.512;13.448;2023-05-07T04:05:17;101826.00;;;16.30
63220;BMP180;49320;52.512;13.448;2023-05-07T04:07:43;101823.00;;;16.30
63220;BMP180;49320;52.512;13.448;2023-05-07T04:10:11;101825.00;;;16.20
63220;BMP180;49320;52.512;13.448;2023-05-07T04:12:38;101835.00;;;16.20
63220;BMP180;49320;52.512;13.448;2023-05-07T04:15:05;101834.00;;;16.20
63220;BMP180;49320;52.512;13.448;2023-05-07T04:17:32;101829.00;;;16.30
63220;BMP180;49320;52.512;13.448;2023-05-07T04:19:59;101826.00;;;16.30
63220;BMP180;49320;52.512;13.448;2023-05-07T04:22:26;101827.00;;;16.30
63220;BMP180;49320;52.512;13.448;2023-05-07T04:24:53;101830.00;;;16.30
63220;BMP180;49320;52.512;13.448;2023-05-07T04:27:19;101835.00;;;16.30
63220;BMP180;49320;52.512;13.448;2023-05-07T04:29:47;101836.00;;;16.30
63220;BMP180;49320;52.512;13.448;2023-05-07T04:32:13;101839.00;;;16.30
63220;BMP180;49320;52.512;13.448;2023-05-07T04:34:41;101832.00;;;16.30
63220;BMP180;49320;52.512;13.448;2023-05-07T04:37:08;101836.00;;;16.40
63220;BMP180;49320;52.512;13.448;2023-05-07T04:39:35;101845.00;;;16.40
63220;BMP180;49320;52.512;13.448;2023-05-07T04:42:01;101847.00;;;16.40
63220;BMP180;49320;52.512;13.448;2023-05-07T04:44:29;101840.00;;;16.40
63220;BMP180;49320;52.512;13.448;2023-05-07T04:46:57;101850.00;;;16.40
63220;BMP180;49320;52.512;13.448;2023-05-07T04:49:24;101855.00;;;16.40
63220;BMP180;49320;52.512;13.448;2023-05-07T04:51:51;101860.00;;;16.40
63220;BMP180;49320;52.512;13.448;2023-05-07T04:54:18;101855.00;;;16.40
63220;BMP180;49320;52.512;13.448;2023-05-07T04:56:44;101860.00;;;16.50
63220;BMP180;49320;52.512;13.448;2023-05-07T04:59:11;101865.00;;;16.50
63220;BMP180;49320;52.512;13.448;2023-05-07T05:01:38;101865.00;;;16.50
63220;BMP180;49320;52.512;13.448;2023-05-07T05:04:05;101862.00;;;16.60
63220;BMP180;49320;52.512;13.448;2023-05-07T05:06:32;101870.00;;;16.70
63220;BMP180;49320;52.512;13.448;2023-05-07T05:08:59;101869.00;;;16.70
63220;BMP180;49320;52.512;13.448;2023-05-07T05:11:25;101871.00;;;16.80
63220;BMP180;49320;52.512;13.448;2023-05-07T05:13:52;101870.00;;;16.80
63220;BMP180;49320;52.512;13.448;2023-05-07T05:16:19;101864.00;;;16.80
63220;BMP180;49320;52.512;13.448;2023-05-07T05:18:46;101871.00;;;16.90
63220;BMP180;49320;52.512;13.448;2023-05-07T05:21:13;101882.00;;;17.00
63220;BMP180;49320;52.512;13.448;2023-05-07T05:23:40;101881.00;;;17.10
63220;BMP180;49320;52.512;13.448;2023-05-07T05:26:07;101875.00;;;17.00
63220;BMP180;49320;52.512;13.448;2023-05-07T05:28:33;101887.00;;;17.10
63220;BMP180;49320;52.512;13.448;2023-05-07T05:31:00;101884.00;;;17.10
63220;BMP180;49320;52.512;13.448;2023-05-07T05:33:27;101878.00;;;17.10
63220;BMP180;49320;52.512;13.448;2023-05-07T05:35:54;101883.00;;;17.10
63220;BMP180;49320;52.512;13.448;2023-05-07T05:38:21;101879.00;;;17.20
63220;BMP180;49320;52.512;13.448;2023-05-07T05:40:48;101886.00;;;17.20
63220;BMP180;49320;52.512;13.448;2023-05-07T05:43:14;101877.00;;;17.20
63220;BMP180;49320;52.512;13.448;2023-05-07T05:45:41;101872.00;;;17.20
63220;BMP180;49320;52.512;13.448;2023-05-07T05:48:08;101882.00;;;17.20
63220;BMP180;49320;52.512;13.448;2023-05-07T05:50:35;101879.00;;;17.30
63220;BMP180;49320;52.512;13.448;2023-05-07T05:53:03;101884.00;;;17.40
63220;BMP180;49320;52.512;13.448;2023-05-07T05:55:30;101887.00;;;17.40
63220;BMP180;49320;52.512;13.448;2023-05-07T05:58:03;101884.00;;;17.50
63220;BMP180;49320;52.512;13.448;2023-05-07T06:00:30;101891.00;;;17.50
63220;BMP180;49320;52.512;13.448;2023-05-07T06:02:57;101889.00;;;17.40
63220;BMP180;49320;52.512;13.448;2023-05-07T06:05:23;101890.00;;;17.40
63220;BMP180;49320;52.512;13.448;2023-05-07T06:07:50;101902.00;;;17.50
63220;BMP180;49320;52.512;13.448;2023-05-07T06:10:17;101897.00;;;17.50
63220;BMP180;49320;52.512;13.448;2023-05-07T06:12:44;101904.00;;;17.50
63220;BMP180;49320;52.512;13.448;2023-05-07T06:15:11;101900.00;;;17.60
63220;BMP180;49320;52.512;13.448;2023-05-07T06:17:38;101896.00;;;17.60
63220;BMP180;49320;52.512;13.448;2023-05-07T06:20:06;101905.00;;;17.60
63220;BMP180;49320;52.512;13.448;2023-05-07T06:22:33;101899.00;;;17.70
63220;BMP180;49320;52.512;13.448;2023-05-07T06:24:59;101911.00;;;17.70
63220;BMP180;49320;52.512;13.448;2023-05-07T06:27:26;101911.00;;;17.70
63220;BMP180;49320;52.512;13.448;2023-05-07T06:29:54;101917.00;;;17.70
63220;BMP180;49320;52.512;13.448;2023-05-07T06:32:21;101913.00;;;17.80
63220;BMP180;49320;52.512;13.448;2023-05-07T06:34:48;101918.00;;;17.80
63220;BMP180;49320;52.512;13.448;2023-05-07T06:37:14;101917.00;;;17.80
63220;BMP180;49320;52.512;13.448;2023-05-07T06:39:41;101923.00;;;17.90
63220;BMP180;49320;52.512;13.448;2023-05-07T06:42:08;101922.00;;;17.90
63220;BMP180;49320;52.512;13.448;2023-05-07T06:44:35;101926.00;;;18.00
63220;BMP180;49320;52.512;13.448;2023-05-07T06:47:02;101928.00;;;18.00
63220;BMP180;49320;52.512;13.448;2023-05-07T06:49:28;101936.00;;;18.10
63220;BMP180;49320;52.512;13.448;2023-05-07T06:51:56;101928.00;;;18.10
63220;BMP180;49320;52.512;13.448;2023-05-07T06:54:23;101944.00;;;18.20
63220;BMP180;49320;52.512;13.448;2023-05-07T06:56:50;101941.00;;;18.30
63220;BMP180;49320;52.512;13.448;2023-05-07T06:59:16;101936.00;;;18.40
63220;BMP180;49320;52.512;13.448;2023-05-07T07:01:44;101937.00;;;18.50
63220;BMP180;49320;52.512;13.448;2023-05-07T07:04:11;101938.00;;;18.50
63220;BMP180;49320;52.512;13.448;2023-05-07T07:06:37;101943.00;;;18.60
63220;BMP180;49320;52.512;13.448;2023-05-07T07:09:05;101948.00;;;18.60
63220;BMP180;49320;52.512;13.448;2023-05-07T07:11:32;101955.00;;;18.60
63220;BMP180;49320;52.512;13.448;2023-05-07T07:13:58;101944.00;;;18.60
63220;BMP180;49320;52.512;13.448;2023-05-07T07:16:25;101935.00;;;18.60
63220;BMP180;49320;52.512;13.448;2023-05-07T07:18:52;101937.00;;;18.60
63220;BMP180;49320;52.512;13.448;2023-05-07T07:21:19;101939.00;;;18.70
63220;BMP180;49320;52.512;13.448;2023-05-07T07:23:46;101943.00;;;18.70
63220;BMP180;49320;52.512;13.448;2023-05-07T07:26:13;101947.00;;;18.80
63220;BMP180;49320;52.512;13.448;2023-05-07T07:28:44;101943.00;;;18.80
63220;BMP180;49320;52.512;13.448;2023-05-07T07:31:12;101949.00;;;18.80
63220;BMP180;49320;52.512;13.448;2023-05-07T07:33:39;101945.00;;;18.90
63220;BMP180;49320;52.512;13.448;2023-05-07T07:36:07;101942.00;;;18.90
63220;BMP180;49320;52.512;13.448;2023-05-07T07:38:34;101945.00;;;18.90
63220;BMP180;49320;52.512;13.448;2023-05-07T07:41:01;101937.00;;;18.90
63220;BMP180;49320;52.512;13.448;2023-05-07T07:43:28;101922.00;;;18.90
63220;BMP180;49320;52.512;13.448;2023-05-07T07:45:55;101928.00;;;18.90
63220;BMP180;49320;52.512;13.448;2023-05-07T07:48:22;101917.00;;;18.90
63220;BMP180;49320;52.512;13.448;2023-05-07T07:50:50;101917.00;;;18.90
63220;BMP180;49320;52.512;13.448;2023-05-07T07:53:18;101924.00;;;18.90
63220;BMP180;49320;52.512;13.448;2023-05-07T07:55:45;101932.00;;;18.90
63220;BMP180;49320;52.512;13.448;2023-05-07T07:58:12;101931.00;;;18.90
63220;BMP180;49320;52.512;13.448;2023-05-07T08:00:39;101928.00;;;18.90
63220;BMP180;49320;52.512;13.448;2023-05-07T08:03:09;101938.00;;;19.00
63220;BMP180;49320;52.512;13.448;2023-05-07T08:05:36;101934.00;;;19.00
63220;BMP180;49320;52.512;13.448;2023-05-07T08:08:03;101937.00;;;19.10
63220;BMP180;49320;52.512;13.448;2023-05-07T08:10:30;101943.00;;;19.20
63220;BMP180;49320;52.512;13.448;2023-05-07T08:13:01;101927.00;;;19.30
63220;BMP180;49320;52.512;13.448;2023-05-07T08:15:31;101927.00;;;19.30
63220;BMP180;49320;52.512;13.448;2023-05-07T08:17:58;101934.00;;;19.40
63220;BMP180;49320;52.512;13.448;2023-05-07T08:20:26;101938.00;;;19.40
63220;BMP180;49320;52.512;13.448;2023-05-07T08:22:54;101929.00;;;19.40
63220;BMP180;49320;52.512;13.448;2023-05-07T08:25:21;101938.00;;;19.50
63220;BMP180;49320;52.512;13.448;2023-05-07T08:27:48;101931.00;;;19.50
63220;BMP180;49320;52.512;13.448;2023-05-07T08:30:15;101939.00;;;19.60
63220;BMP180;49320;52.512;13.448;2023-05-07T08:32:42;101932.00;;;19.70
63220;BMP180;49320;52.512;13.448;2023-05-07T08:35:09;101933.00;;;19.80
63220;BMP180;49320;52.512;13.448;2023-05-07T08:37:36;101946.00;;;19.90
63220;BMP180;49320;52.512;13.448;2023-05-07T08:40:04;101942.00;;;20.00
63220;BMP180;49320;52.512;13.448;2023-05-07T08:42:39;101932.00;;;20.10
63220;BMP180;49320;52.512;13.448;2023-05-07T08:45:10;101936.00;;;20.20
63220;BMP180;49320;52.512;13.448;2023-05-07T08:47:44;101946.00;;;20.30
63220;BMP180;49320;52.512;13.448;2023-05-07T08:50:13;101946.00;;;20.30
63220;BMP180;49320;52.512;13.448;2023-05-07T08:52:40;101946.00;;;20.40
63220;BMP180;49320;52.512;13.448;2023-05-07T08:55:08;101942.00;;;20.60
63220;BMP180;49320;52.512;13.448;2023-05-07T08:57:35;101954.00;;;20.70
63220;BMP180;49320;52.512;13.448;2023-05-07T09:00:04;101959.00;;;20.80
63220;BMP180;49320;52.512;13.448;2023-05-07T09:02:37;101950.00;;;20.90
63220;BMP180;49320;52.512;13.448;2023-05-07T09:05:05;101956.00;;;20.90
63220;BMP180;49320;52.512;13.448;2023-05-07T09:07:32;101962.00;;;21.00
63220;BMP180;49320;52.512;13.448;2023-05-07T09:10:04;101957.00;;;21.10
63220;BMP180;49320;52.512;13.448;2023-05-07T09:12:32;101953.00;;;21.10
63220;BMP180;49320;52.512;13.448;2023-05-07T09:14:59;101972.00;;;21.20
63220;BMP180;49320;52.512;13.448;2023-05-07T09:17:26;101967.00;;;21.20
63220;BMP180;49320;52.512;13.448;2023-05-07T09:19:53;101964.00;;;21.20
63220;BMP180;49320;52.512;13.448;2023-05-07T09:22:20;101968.00;;;21.30
63220;BMP180;49320;52.512;13.448;2023-05-07T09:24:51;101976.00;;;21.30
63220;BMP180;49320;52.512;13.448;2023-05-07T09:27:18;101981.00;;;21.30
63220;BMP180;49320;52.512;13.448;2023-05-07T09:29:45;101977.00;;;21.30
63220;BMP180;49320;52.512;13.448;2023-05-07T09:32:12;101963.00;;;21.30
63220;BMP180;49320;52.512;13.448;2023-05-07T09:34:41;101958.00;;;21.40
63220;BMP180;49320;52.512;13.448;2023-05-07T09:37:08;101971.00;;;21.40
63220;BMP180;49320;52.512;13.448;2023-05-07T09:39:45;101953.00;;;21.50
63220;BMP180;49320;52.512;13.448;2023-05-07T09:42:13;101970.00;;;21.50
63220;BMP180;49320;52.512;13.448;2023-05-07T09:44:43;101961.00;;;21.50
63220;BMP180;49320;52.512;13.448;2023-05-07T09:47:18;101963.00;;;21.50
63220;BMP180;49320;52.512;13.448;2023-05-07T09:49:48;101967.00;;;21.50
63220;BMP180;49320;52.512;13.448;2023-05-07T09:52:15;101964.00;;;21.50
63220;BMP180;49320;52.512;13.448;2023-05-07T09:54:45;101968.00;;;21.50
63220;BMP180;49320;52.512;13.448;2023-05-07T09:57:14;101968.00;;;21.60
63220;BMP180;49320;52.512;13.448;2023-05-07T09:59:43;101970.00;;;21.60
63220;BMP180;49320;52.512;13.448;2023-05-07T10:02:11;101974.00;;;21.70
63220;BMP180;49320;52.512;13.448;2023-05-07T10:04:40;101967.00;;;21.70
63220;BMP180;49320;52.512;13.448;2023-05-07T10:07:08;101967.00;;;21.80
63220;BMP180;49320;52.512;13.448;2023-05-07T10:09:36;101984.00;;;21.90
63220;BMP180;49320;52.512;13.448;2023-05-07T10:12:06;101973.00;;;21.90
63220;BMP180;49320;52.512;13.448;2023-05-07T10:14:33;101973.00;;;21.90
63220;BMP180;49320;52.512;13.448;2023-05-07T10:17:02;101965.00;;;22.00
63220;BMP180;49320;52.512;13.448;2023-05-07T10:19:29;101967.00;;;22.10
63220;BMP180;49320;52.512;13.448;2023-05-07T10:22:05;101972.00;;;22.20
63220;BMP180;49320;52.512;13.448;2023-05-07T10:24:34;101975.00;;;22.20
63220;BMP180;49320;52.512;13.448;2023-05-07T10:27:06;101971.00;;;22.30
63220;BMP180;49320;52.512;13.448;2023-05-07T10:32:51;101979.00;;;22.40
63220;BMP180;49320;52.512;13.448;2023-05-07T10:35:27;101969.00;;;22.40
63220;BMP180;49320;52.512;13.448;2023-05-07T10:37:56;101980.00;;;22.50
63220;BMP180;49320;52.512;13.448;2023-05-07T10:40:24;101958.00;;;22.50
63220;BMP180;49320;52.512;13.448;2023-05-07T10:42:56;101968.00;;;22.60
63220;BMP180;49320;52.512;13.448;2023-05-07T10:45:23;101976.00;;;22.60
63220;BMP180;49320;52.512;13.448;2023-05-07T10:48:16;101976.00;;;22.60
63220;BMP180;49320;52.512;13.448;2023-05-07T10:51:32;101971.00;;;22.50
63220;BMP180;49320;52.512;13.448;2023-05-07T10:56:40;101977.00;;;22.60
63220;BMP180;49320;52.512;13.448;2023-05-07T11:02:05;101974.00;;;22.70
63220;BMP180;49320;52.512;13.448;2023-05-07T11:04:37;101980.00;;;22.70
63220;BMP180;49320;52.512;13.448;2023-05-07T11:15:13;101975.00;;;22.80
63220;BMP180;49320;52.512;13.448;2023-05-07T11:17:59;101968.00;;;22.90
63220;BMP180;49320;52.512;13.448;2023-05-07T11:20:56;101962.00;;;23.00
63220;BMP180;49320;52.512;13.448;2023-05-07T11:26:07;101957.00;;;23.00
63220;BMP180;49320;52.512;13.448;2023-05-07T11:28:41;101966.00;;;23.10
63220;BMP180;49320;52.512;13.448;2023-05-07T11:31:09;101967.00;;;23.10
63220;BMP180;49320;52.512;13.448;2023-05-07T11:33:37;101957.00;;;23.10
63220;BMP180;49320;52.512;13.448;2023-05-07T11:36:08;101955.00;;;23.20
63220;BMP180;49320;52.512;13.448;2023-05-07T11:38:36;101953.00;;;23.20
63220;BMP180;49320;52.512;13.448;2023-05-07T11:41:04;101965.00;;;23.30
63220;BMP180;49320;52.512;13.448;2023-05-07T11:43:34;101957.00;;;23.20
63220;BMP180;49320;52.512;13.448;2023-05-07T11:46:11;101959.00;;;23.10
63220;BMP180;49320;52.512;13.448;2023-05-07T11:48:39;101946.00;;;23.00
63220;BMP180;49320;52.512;13.448;2023-05-07T11:51:06;101954.00;;;23.00
63220;BMP180;49320;52.512;13.448;2023-05-07T11:53:44;101956.00;;;22.90
63220;BMP180;49320;52.512;13.448;2023-05-07T11:56:13;101951.00;;;22.90
63220;BMP180;49320;52.512;13.448;2023-05-07T11:58:42;101955.00;;;22.90
63220;BMP180;49320;52.512;13.448;2023-05-07T12:01:12;101955.00;;;22.90
63220;BMP180;49320;52.512;13.448;2023-05-07T12:03:44;101956.00;;;22.90
63220;BMP180;49320;52.512;13.448;2023-05-07T12:06:16;101947.00;;;23.00
63220;BMP180;49320;52.512;13.448;2023-05-07T12:08:45;101945.00;;;23.00
63220;BMP180;49320;52.512;13.448;2023-05-07T12:11:22;101956.00;;;23.00
63220;BMP180;49320;52.512;13.448;2023-05-07T12:13:49;101945.00;;;23.10
63220;BMP180;49320;52.512;13.448;2023-05-07T12:16:16;101935.00;;;23.20
63220;BMP180;49320;52.512;13.448;2023-05-07T12:18:44;101945.00;;;23.20
63220;BMP180;49320;52.512;13.448;2023-05-07T12:21:11;101949.00;;;23.30
63220;BMP180;49320;52.512;13.448;2023-05-07T12:23:39;101949.00;;;23.30
63220;BMP180;49320;52.512;13.448;2023-05-07T12:26:06;101956.00;;;23.20
63220;BMP180;49320;52.512;13.448;2023-05-07T12:28:38;101956.00;;;23.20
63220;BMP180;49320;52.512;13.448;2023-05-07T12:31:08;101951.00;;;23.10
63220;BMP180;49320;52.512;13.448;2023-05-07T12:33:35;101954.00;;;23.00
63220;BMP180;49320;52.512;13.448;2023-05-07T12:36:05;101958.00;;;23.00
63220;BMP180;49320;52.512;13.448;2023-05-07T12:38:40;101950.00;;;23.10
63220;BMP180;49320;52.512;13.448;2023-05-07T12:41:10;101949.00;;;23.10
63220;BMP180;49320;52.512;13.448;2023-05-07T12:43:37;101960.00;;;23.20
63220;BMP180;49320;52.512;13.448;2023-05-07T12:46:07;101955.00;;;23.30
63220;BMP180;49320;52.512;13.448;2023-05-07T12:48:38;101952.00;;;23.30
63220;BMP180;49320;52.512;13.448;2023-05-07T12:51:05;101955.00;;;23.50
63220;BMP180;49320;52.512;13.448;2023-05-07T12:53:40;101955.00;;;23.60
63220;BMP180;49320;52.512;13.448;2023-05-07T12:56:08;101955.00;;;23.60
63220;BMP180;49320;52.512;13.448;2023-05-07T12:58:36;101963.00;;;23.60
63220;BMP180;49320;52.512;13.448;2023-05-07T13:01:07;101957.00;;;23.60
63220;BMP180;49320;52.512;13.448;2023-05-07T13:03:37;101954.00;;;23.50
63220;BMP180;49320;52.512;13.448;2023-05-07T13:06:08;101953.00;;;23.60
63220;BMP180;49320;52.512;13.448;2023-05-07T13:08:41;101943.00;;;23.60
63220;BMP180;49320;52.512;13.448;2023-05-07T13:11:12;101947.00;;;23.60
63220;BMP180;49320;52.512;13.448;2023-05-07T13:13:41;101945.00;;;23.70
63220;BMP180;49320;52.512;13.448;2023-05-07T13:16:10;101950.00;;;23.80
63220;BMP180;49320;52.512;13.448;2023-05-07T13:18:40;101939.00;;;23.90
63220;BMP180;49320;52.512;13.448;2023-05-07T13:21:07;101956.00;;;24.00
63220;BMP180;49320;52.512;13.448;2023-05-07T13:23:34;101961.00;;;24.00
63220;BMP180;49320;52.512;13.448;2023-05-07T13:26:01;101958.00;;;24.00
63220;BMP180;49320;52.512;13.448;2023-05-07T13:28:40;101940.00;;;23.90
63220;BMP180;49320;52.512;13.448;2023-05-07T13:31:07;101952.00;;;23.90
63220;BMP180;49320;52.512;13.448;2023-05-07T13:33:34;101952.00;;;24.00
63220;BMP180;49320;52.512;13.448;2023-05-07T13:36:01;101949.00;;;24.00
63220;BMP180;49320;52.512;13.448;2023-05-07T13:38:31;101954.00;;;24.10
63220;BMP180;49320;52.512;13.448;2023-05-07T13:40:58;101962.00;;;24.00
63220;BMP180;49320;52.512;13.448;2023-05-07T13:43:25;101954.00;;;24.00
63220;BMP180;49320;52.512;13.448;2023-05-07T13:45:52;101945.00;;;24.00
63220;BMP180;49320;52.512;13.448;2023-05-07T13:48:19;101937.00;;;24.00
63220;BMP180;49320;52.512;13.448;2023-05-07T13:50:46;101952.00;;;24.00
63220;BMP180;49320;52.512;13.448;2023-05-07T13:53:13;101953.00;;;24.00
63220;BMP180;49320;52.512;13.448;2023-05-07T13:55:40;101959.00;;;24.00
63220;BMP180;49320;52.512;13.448;2023-05-07T13:58:06;101963.00;;;24.00
63220;BMP180;49320;52.512;13.448;2023-05-07T14:00:33;101960.00;;;24.00
63220;BMP180;49320;52.512;13.448;2023-05-07T14:03:01;101959.00;;;24.00
63220;BMP180;49320;52.512;13.448;2023-05-07T14:05:28;101966.00;;;24.00
63220;BMP180;49320;52.512;13.448;2023-05-07T14:07:57;101951.00;;;23.90
63220;BMP180;49320;52.512;13.448;2023-05-07T14:10:25;101953.00;;;23.80